createdAt,value
2023-12-09T00:02:45.102Z,64.00
2023-12-09T00:06:48.329Z,47.80
2023-12-09T00:10:49.520Z,30.30
2023-12-09T00:14:50.598Z,28.87
2023-12-09T00:18:51.995Z,27.80
2023-12-09T00:22:53.045Z,21.07
2023-12-09T00:26:54.279Z,21.40
2023-12-09T00:30:55.552Z,24.50
2023-12-09T00:34:56.589Z,25.83
2023-12-09T00:38:58.271Z,27.07
2023-12-09T00:42:59.267Z,24.77
2023-12-09T00:47:00.297Z,16.07
2023-12-09T00:51:01.352Z,16.43
2023-12-09T00:55:02.564Z,22.60
2023-12-09T00:59:04.738Z,19.20
2023-12-09T01:03:05.847Z,24.53
2023-12-09T01:07:06.839Z,16.23
2023-12-09T01:11:08.160Z,19.57
2023-12-09T01:15:09.610Z,16.37
2023-12-09T01:19:10.630Z,16.73
2023-12-09T01:23:12.071Z,15.77
2023-12-09T01:27:13.138Z,15.57
2023-12-09T01:31:14.303Z,22.97
2023-12-09T01:35:15.610Z,16.80
2023-12-09T01:39:16.804Z,13.90
2023-12-09T01:43:17.917Z,11.17
2023-12-09T01:47:19.351Z,11.07
2023-12-09T01:51:20.682Z,12.97
2023-12-09T01:55:22.370Z,17.73
2023-12-09T01:59:23.783Z,11.53
2023-12-09T02:03:25.171Z,15.77
2023-12-09T02:07:26.239Z,13.03
2023-12-09T02:11:37.430Z,16.03
2023-12-09T02:15:44.522Z,8.93
2023-12-09T02:19:46.556Z,12.97
2023-12-09T02:23:47.560Z,10.70
2023-12-09T02:27:55.522Z,13.97
2023-12-09T02:32:00.496Z,12.67
2023-12-09T02:36:04.041Z,6.13
2023-12-09T02:40:08.664Z,10.47
2023-12-09T02:44:10.094Z,10.53
2023-12-09T02:48:11.387Z,16.03
2023-12-09T02:52:12.781Z,16.83
2023-12-09T02:56:13.848Z,15.80
2023-12-09T03:00:15.255Z,19.53
2023-12-09T03:04:16.608Z,21.17
2023-12-09T03:08:17.803Z,17.93
2023-12-09T03:12:19.019Z,22.33
2023-12-09T03:16:20.249Z,18.70
2023-12-09T03:20:21.618Z,18.17
2023-12-09T03:24:22.840Z,14.90
2023-12-09T03:28:23.913Z,14.80
2023-12-09T03:32:25.685Z,15.07
2023-12-09T03:36:27.112Z,12.33
2023-12-09T03:40:28.370Z,14.20
2023-12-09T03:44:31.259Z,12.03
2023-12-09T03:48:32.841Z,11.80
2023-12-09T03:52:36.064Z,10.07
2023-12-09T03:56:37.410Z,11.37
2023-12-09T04:00:40.197Z,12.50
2023-12-09T04:04:41.599Z,10.20
2023-12-09T04:08:42.844Z,8.27
2023-12-09T04:12:44.098Z,13.10
2023-12-09T04:16:45.067Z,9.57
2023-12-09T04:20:46.762Z,7.83
2023-12-09T04:24:47.800Z,7.83
2023-12-09T04:28:48.965Z,12.90
2023-12-09T04:32:50.335Z,5.97
2023-12-09T04:36:51.473Z,8.47
2023-12-09T04:40:52.729Z,10.13
2023-12-09T04:44:54.291Z,8.17
2023-12-09T04:48:55.853Z,9.53
2023-12-09T04:52:57.093Z,6.53
2023-12-09T04:56:58.428Z,10.57
2023-12-09T05:00:59.604Z,9.50
2023-12-09T05:05:00.716Z,9.13
2023-12-09T05:09:02.398Z,10.00
2023-12-09T05:13:03.526Z,15.20
2023-12-09T05:17:04.647Z,13.90
2023-12-09T05:21:06.340Z,11.83
2023-12-09T05:25:08.016Z,10.90
2023-12-09T05:29:09.216Z,12.07
2023-12-09T05:33:10.377Z,9.60
2023-12-09T05:37:11.604Z,10.17
2023-12-09T05:41:12.742Z,6.77
2023-12-09T05:45:14.037Z,7.67
2023-12-09T05:49:15.666Z,8.43
2023-12-09T05:53:16.888Z,12.03
2023-12-09T05:57:18.406Z,11.07
2023-12-09T06:01:19.595Z,11.80
2023-12-09T06:05:20.727Z,14.77
2023-12-09T06:09:21.897Z,18.13
2023-12-09T06:13:23.034Z,20.43
2023-12-09T06:17:24.282Z,16.50
2023-12-09T06:21:26.794Z,20.00
2023-12-09T06:25:27.828Z,21.60
2023-12-09T06:29:29.036Z,20.27
2023-12-09T06:33:30.224Z,23.93
2023-12-09T06:37:31.362Z,19.03
2023-12-09T06:41:32.537Z,16.63
2023-12-09T06:45:33.602Z,20.10
2023-12-09T06:49:34.793Z,16.20
2023-12-09T06:53:39.512Z,15.90
2023-12-09T06:57:40.518Z,19.80
2023-12-09T07:01:43.556Z,15.03
2023-12-09T07:05:44.815Z,17.97
2023-12-09T07:09:46.037Z,19.40
2023-12-09T07:13:47.789Z,18.97
2023-12-09T07:17:48.956Z,21.27
2023-12-09T07:21:51.545Z,17.00
2023-12-09T07:25:52.576Z,33.30
2023-12-09T07:29:53.808Z,29.73
2023-12-09T07:33:55.134Z,45.20
2023-12-09T07:37:56.148Z,41.00
2023-12-09T07:41:57.284Z,50.13
2023-12-09T07:45:58.210Z,64.87
2023-12-09T07:49:59.385Z,64.47
2023-12-09T07:54:00.675Z,52.83
2023-12-09T07:58:01.719Z,77.70
2023-12-09T08:02:02.910Z,88.87
2023-12-09T08:06:04.582Z,156.60
2023-12-09T08:10:06.974Z,102.67
2023-12-09T08:14:10.915Z,82.23
2023-12-09T08:18:11.416Z,100.70
2023-12-09T08:22:13.821Z,96.63
2023-12-09T08:26:18.184Z,66.93
2023-12-09T08:30:19.199Z,65.17
2023-12-09T08:34:20.661Z,84.90
2023-12-09T08:38:21.866Z,86.03
2023-12-09T08:42:23.199Z,50.20
2023-12-09T08:46:24.276Z,69.23
2023-12-09T08:50:25.915Z,54.07
2023-12-09T08:54:27.421Z,66.13
2023-12-09T08:58:29.091Z,61.63
2023-12-09T09:02:31.952Z,44.43
2023-12-09T09:06:33.117Z,46.70
2023-12-09T09:10:34.378Z,41.77
2023-12-09T09:14:36.693Z,42.20
2023-12-09T09:18:37.978Z,45.33
2023-12-09T09:22:39.200Z,46.83
2023-12-09T09:26:40.191Z,49.20
2023-12-09T09:30:41.484Z,45.33
2023-12-09T09:34:43.349Z,60.07
2023-12-09T09:38:44.832Z,78.93
2023-12-09T09:42:57.426Z,90.37
2023-12-09T09:47:00.334Z,113.03
2023-12-09T09:51:03.794Z,74.47
2023-12-09T09:55:09.137Z,48.93
2023-12-09T09:59:11.292Z,39.57
2023-12-09T10:03:12.339Z,47.67
2023-12-09T10:07:14.745Z,210.63
2023-12-09T10:11:16.147Z,155.37
2023-12-09T10:15:17.398Z,311.30
2023-12-09T10:19:20.626Z,188.07
2023-12-09T10:23:22.687Z,259.20
2023-12-09T10:27:24.888Z,224.37
2023-12-09T10:31:27.580Z,260.40
2023-12-09T10:35:28.898Z,298.00
2023-12-09T10:39:30.228Z,243.67
2023-12-09T10:43:31.226Z,243.23
2023-12-09T10:47:32.616Z,239.00
2023-12-09T10:51:33.850Z,207.47
2023-12-09T10:55:35.559Z,129.57
2023-12-09T10:59:37.083Z,169.60
2023-12-09T11:03:39.196Z,80.30
2023-12-09T11:07:41.890Z,75.00
2023-12-09T11:11:43.051Z,67.13
2023-12-09T11:15:44.113Z,55.80
2023-12-09T11:19:45.422Z,62.40
2023-12-09T11:23:54.058Z,56.30
2023-12-09T11:27:57.146Z,59.90
2023-12-09T11:31:58.312Z,57.23
2023-12-09T11:36:00.189Z,67.07
2023-12-09T11:40:02.545Z,69.20
2023-12-09T11:44:04.968Z,50.87
2023-12-09T11:48:06.507Z,43.70
2023-12-09T11:52:08.663Z,44.30
2023-12-09T11:56:09.712Z,39.13
2023-12-09T12:00:14.432Z,33.30
2023-12-09T12:04:15.477Z,34.77
2023-12-09T12:08:16.750Z,33.57
2023-12-09T12:12:18.827Z,33.03
2023-12-09T12:16:20.426Z,35.17
2023-12-09T12:20:21.431Z,34.67
2023-12-09T12:24:22.493Z,42.70
2023-12-09T12:28:24.845Z,36.97
2023-12-09T12:32:26.330Z,32.47
2023-12-09T12:36:27.681Z,30.37
2023-12-09T12:40:31.153Z,25.50
2023-12-09T12:44:35.711Z,27.67
2023-12-09T12:48:37.268Z,26.83
2023-12-09T12:52:39.418Z,25.00
2023-12-09T12:56:40.748Z,25.27
2023-12-09T13:00:42.294Z,30.23
2023-12-09T13:04:43.540Z,31.27
2023-12-09T13:08:45.863Z,29.77
2023-12-09T13:12:47.043Z,28.50
2023-12-09T13:16:48.387Z,30.27
2023-12-09T13:20:50.975Z,33.63
2023-12-09T13:24:52.270Z,35.77
2023-12-09T13:28:53.330Z,29.07
2023-12-09T13:32:54.715Z,27.73
2023-12-09T13:36:56.066Z,28.40
2023-12-09T13:40:57.275Z,33.70
2023-12-09T13:44:58.814Z,30.13
2023-12-09T13:49:00.104Z,30.00
2023-12-09T13:53:01.743Z,30.93
2023-12-09T13:57:03.229Z,33.17
2023-12-09T14:01:05.558Z,30.37
2023-12-09T14:05:08.910Z,30.70
2023-12-09T14:09:10.246Z,27.63
2023-12-09T14:13:11.601Z,26.13
2023-12-09T14:17:13.107Z,26.23
2023-12-09T14:21:14.546Z,25.80
2023-12-09T14:25:15.718Z,25.47
2023-12-09T14:29:16.864Z,22.53
2023-12-09T14:33:17.969Z,23.80
2023-12-09T14:37:20.186Z,23.13
2023-12-09T14:41:21.501Z,21.03
2023-12-09T14:45:22.598Z,21.07
2023-12-09T14:49:24.266Z,17.23
2023-12-09T14:53:25.377Z,17.07
2023-12-09T14:57:27.618Z,14.27
2023-12-09T15:01:28.732Z,16.90
2023-12-09T15:05:29.762Z,14.47
2023-12-09T15:09:31.655Z,15.67
2023-12-09T15:13:32.703Z,8.53
2023-12-09T15:17:36.085Z,10.17
2023-12-09T15:21:37.009Z,7.60
2023-12-09T15:25:38.591Z,2.97
2023-12-09T15:29:39.761Z,7.93
2023-12-09T15:33:40.997Z,5.77
2023-12-09T15:37:43.853Z,6.33
2023-12-09T15:41:44.907Z,8.00
2023-12-09T15:45:46.053Z,7.80
2023-12-09T15:49:47.332Z,11.60
2023-12-09T15:53:48.846Z,9.60
2023-12-09T15:57:50.119Z,9.90
2023-12-09T16:01:53.109Z,13.87
2023-12-09T16:05:54.591Z,7.87
2023-12-09T16:09:58.219Z,12.50
2023-12-09T16:13:58.561Z,9.73
2023-12-09T16:17:59.858Z,8.73
2023-12-09T16:22:02.337Z,8.07
2023-12-09T16:26:05.005Z,10.70
2023-12-09T16:30:07.175Z,8.10
2023-12-09T16:34:08.829Z,11.73
2023-12-09T16:38:11.058Z,9.53
2023-12-09T16:42:12.363Z,8.63
2023-12-09T16:46:14.004Z,11.23
2023-12-09T16:50:15.779Z,11.50
2023-12-09T16:54:16.814Z,11.63
2023-12-09T16:58:19.747Z,8.03
2023-12-09T17:02:20.754Z,9.57
2023-12-09T17:06:22.310Z,8.83
2023-12-09T17:10:23.631Z,10.63
2023-12-09T17:14:25.167Z,8.80
2023-12-09T17:18:27.587Z,9.30
2023-12-09T17:22:30.699Z,9.87
2023-12-09T17:26:33.897Z,8.07
2023-12-09T17:30:35.420Z,11.13
2023-12-09T17:34:36.502Z,6.57
2023-12-09T17:38:37.816Z,6.13
2023-12-09T17:42:38.837Z,8.77
2023-12-09T17:46:40.059Z,5.17
2023-12-09T17:50:41.225Z,9.57
2023-12-09T17:54:42.281Z,7.30
2023-12-09T17:58:43.597Z,7.40
2023-12-09T18:02:44.779Z,9.30
2023-12-09T18:06:45.967Z,11.37
2023-12-09T18:10:47.270Z,10.10
2023-12-09T18:14:48.296Z,8.60
2023-12-09T18:18:49.539Z,8.47
2023-12-09T18:22:52.129Z,7.90
2023-12-09T18:26:53.649Z,9.50
2023-12-09T18:30:55.728Z,8.27
2023-12-09T18:34:58.364Z,9.10
2023-12-09T18:38:59.526Z,10.90
2023-12-09T18:43:00.653Z,9.27
2023-12-09T18:47:02.192Z,11.10
2023-12-09T18:51:04.207Z,11.30
2023-12-09T18:55:07.238Z,11.10
2023-12-09T18:59:08.256Z,10.43
2023-12-09T19:03:09.331Z,14.13
2023-12-09T19:07:11.500Z,11.03
2023-12-09T19:11:12.649Z,8.87
2023-12-09T19:15:14.028Z,6.17
2023-12-09T19:19:15.850Z,5.60
2023-12-09T19:23:17.651Z,4.20
2023-12-09T19:27:18.978Z,6.23
2023-12-09T19:31:20.114Z,5.40
2023-12-09T19:35:22.374Z,6.50
2023-12-09T19:39:23.662Z,9.27
2023-12-09T19:43:24.796Z,5.27
2023-12-09T19:47:26.546Z,9.53
2023-12-09T19:51:27.747Z,6.87
2023-12-09T19:55:28.924Z,4.60
2023-12-09T19:59:31.440Z,2.30
2023-12-09T20:03:32.702Z,2.23
2023-12-09T20:07:34.046Z,4.40
2023-12-09T20:11:35.092Z,1.00
2023-12-09T20:15:36.412Z,0.70
2023-12-09T20:19:38.183Z,1.70
2023-12-09T20:23:39.798Z,1.43
2023-12-09T20:27:41.187Z,1.07
2023-12-09T20:31:44.475Z,1.60
2023-12-09T20:35:45.680Z,1.53
2023-12-09T20:39:46.810Z,1.73
2023-12-09T20:43:50.751Z,1.60
2023-12-09T20:47:51.173Z,1.70
2023-12-09T20:51:52.317Z,2.13
2023-12-09T20:55:53.329Z,2.20
2023-12-09T20:59:54.335Z,2.60
2023-12-09T21:03:55.662Z,4.67
2023-12-09T21:07:56.978Z,2.57
2023-12-09T21:11:59.898Z,3.13
2023-12-09T21:16:00.972Z,2.10
2023-12-09T21:20:02.998Z,2.77
2023-12-09T21:24:04.404Z,4.73
2023-12-09T21:28:08.666Z,5.93
2023-12-09T21:32:09.520Z,1.83
2023-12-09T21:36:18.183Z,2.50
2023-12-09T21:40:19.199Z,3.43
2023-12-09T21:44:20.362Z,2.53
2023-12-09T21:48:22.344Z,3.03
2023-12-09T21:52:23.523Z,2.70
2023-12-09T21:56:25.842Z,5.13
2023-12-09T22:00:26.902Z,4.23
2023-12-09T22:04:28.112Z,3.43
2023-12-09T22:08:29.304Z,4.47
2023-12-09T22:12:30.896Z,4.83
2023-12-09T22:16:32.064Z,6.13
2023-12-09T22:20:33.452Z,4.43
2023-12-09T22:24:35.758Z,5.77
2023-12-09T22:28:38.781Z,6.70
2023-12-09T22:32:40.026Z,8.50
2023-12-09T22:36:41.251Z,6.00
2023-12-09T22:40:42.517Z,5.73
2023-12-09T22:44:44.098Z,5.90
2023-12-09T22:48:45.372Z,11.00
2023-12-09T22:52:46.567Z,10.87
2023-12-09T22:56:47.877Z,25.07
2023-12-09T23:00:49.030Z,25.60
2023-12-09T23:04:50.326Z,10.53
2023-12-09T23:08:52.126Z,12.47
2023-12-09T23:12:53.187Z,14.20
2023-12-09T23:16:54.433Z,14.57
2023-12-09T23:20:57.542Z,11.70
2023-12-09T23:24:58.736Z,19.10
2023-12-09T23:29:00.772Z,22.37
2023-12-09T23:33:04.264Z,18.57
2023-12-09T23:37:05.408Z,13.97
2023-12-09T23:41:14.783Z,15.27
2023-12-09T23:45:15.999Z,19.40
2023-12-09T23:49:17.208Z,13.50
2023-12-09T23:53:19.131Z,33.87
2023-12-09T23:57:20.200Z,16.67
